sensor_id;sensor_type;location;lat;lon;timestamp;P1;durP1;ratioP1;P2;durP2;ratioP2
6529;SDS011;3298;42.688;23.366;2022-09-01T00:00:04;13.50;;;11.20;;
6529;SDS011;3298;42.688;23.366;2022-09-01T00:02:35;13.47;;;12.10;;
6529;SDS011;3298;42.688;23.366;2022-09-01T00:05:02;13.63;;;12.33;;
6529;SDS011;3298;42.688;23.366;2022-09-01T00:07:31;13.17;;;11.80;;
6529;SDS011;3298;42.688;23.366;2022-09-01T00:10:00;15.07;;;11.23;;
6529;SDS011;3298;42.688;23.366;2022-09-01T00:12:28;14.00;;;11.80;;
6529;SDS011;3298;42.688;23.366;2022-09-01T00:14:55;16.70;;;11.70;;
6529;SDS011;3298;42.688;23.366;2022-09-01T00:17:24;12.60;;;11.43;;
6529;SDS011;3298;42.688;23.366;2022-09-01T00:19:51;12.13;;;11.10;;
6529;SDS011;3298;42.688;23.366;2022-09-01T00:22:17;15.97;;;12.10;;
6529;SDS011;3298;42.688;23.366;2022-09-01T00:24:44;13.57;;;12.17;;
6529;SDS011;3298;42.688;23.366;2022-09-01T00:27:11;14.03;;;12.60;;
6529;SDS011;3298;42.688;23.366;2022-09-01T00:29:38;14.50;;;13.00;;
6529;SDS011;3298;42.688;23.366;2022-09-01T00:32:05;12.60;;;11.37;;
6529;SDS011;3298;42.688;23.366;2022-09-01T00:34:33;12.53;;;11.43;;
6529;SDS011;3298;42.688;23.366;2022-09-01T00:37:00;13.23;;;11.80;;
6529;SDS011;3298;42.688;23.366;2022-09-01T00:39:27;11.87;;;10.87;;
6529;SDS011;3298;42.688;23.366;2022-09-01T00:41:54;12.83;;;10.60;;
6529;SDS011;3298;42.688;23.366;2022-09-01T00:44:22;12.40;;;11.00;;
6529;SDS011;3298;42.688;23.366;2022-09-01T00:46:52;14.93;;;11.03;;
6529;SDS011;3298;42.688;23.366;2022-09-01T00:49:21;14.57;;;11.43;;
6529;SDS011;3298;42.688;23.366;2022-09-01T00:51:57;12.87;;;11.60;;
6529;SDS011;3298;42.688;23.366;2022-09-01T00:54:27;14.73;;;13.20;;
6529;SDS011;3298;42.688;23.366;2022-09-01T00:56:57;13.07;;;12.07;;
6529;SDS011;3298;42.688;23.366;2022-09-01T00:59:25;15.47;;;11.60;;
6529;SDS011;3298;42.688;23.366;2022-09-01T01:01:55;10.97;;;10.13;;
6529;SDS011;3298;42.688;23.366;2022-09-01T01:04:23;12.67;;;11.43;;
6529;SDS011;3298;42.688;23.366;2022-09-01T01:06:52;11.90;;;10.83;;
6529;SDS011;3298;42.688;23.366;2022-09-01T01:09:28;13.27;;;11.83;;
6529;SDS011;3298;42.688;23.366;2022-09-01T01:11:58;15.90;;;11.50;;
6529;SDS011;3298;42.688;23.366;2022-09-01T01:14:26;13.50;;;12.03;;
6529;SDS011;3298;42.688;23.366;2022-09-01T01:16:55;12.33;;;11.30;;
6529;SDS011;3298;42.688;23.366;2022-09-01T01:19:24;12.80;;;11.70;;
6529;SDS011;3298;42.688;23.366;2022-09-01T01:22:19;12.00;;;10.80;;
6529;SDS011;3298;42.688;23.366;2022-09-01T01:25:11;12.47;;;10.97;;
6529;SDS011;3298;42.688;23.366;2022-09-01T01:27:38;13.33;;;11.70;;
6529;SDS011;3298;42.688;23.366;2022-09-01T01:30:07;13.53;;;11.60;;
6529;SDS011;3298;42.688;23.366;2022-09-01T01:32:35;11.63;;;10.37;;
6529;SDS011;3298;42.688;23.366;2022-09-01T01:35:05;12.37;;;11.10;;
6529;SDS011;3298;42.688;23.366;2022-09-01T01:37:36;12.63;;;11.53;;
6529;SDS011;3298;42.688;23.366;2022-09-01T01:40:04;12.00;;;11.00;;
6529;SDS011;3298;42.688;23.366;2022-09-01T01:42:41;13.07;;;11.80;;
6529;SDS011;3298;42.688;23.366;2022-09-01T01:45:10;12.83;;;11.53;;
6529;SDS011;3298;42.688;23.366;2022-09-01T01:47:41;15.23;;;13.00;;
6529;SDS011;3298;42.688;23.366;2022-09-01T01:50:10;13.10;;;11.70;;
6529;SDS011;3298;42.688;23.366;2022-09-01T01:52:39;18.37;;;14.00;;
6529;SDS011;3298;42.688;23.366;2022-09-01T01:55:07;14.97;;;13.37;;
6529;SDS011;3298;42.688;23.366;2022-09-01T01:57:36;14.50;;;13.00;;
6529;SDS011;3298;42.688;23.366;2022-09-01T02:00:08;15.10;;;12.37;;
6529;SDS011;3298;42.688;23.366;2022-09-01T02:02:36;14.97;;;13.47;;
6529;SDS011;3298;42.688;23.366;2022-09-01T02:05:04;13.80;;;12.53;;
6529;SDS011;3298;42.688;23.366;2022-09-01T02:07:31;14.53;;;13.13;;
6529;SDS011;3298;42.688;23.366;2022-09-01T02:09:58;13.47;;;11.73;;
6529;SDS011;3298;42.688;23.366;2022-09-01T02:12:26;14.60;;;11.77;;
6529;SDS011;3298;42.688;23.366;2022-09-01T02:14:52;13.03;;;11.57;;
6529;SDS011;3298;42.688;23.366;2022-09-01T02:17:21;13.63;;;12.27;;
6529;SDS011;3298;42.688;23.366;2022-09-01T02:19:49;13.67;;;12.03;;
6529;SDS011;3298;42.688;23.366;2022-09-01T02:22:21;12.67;;;11.37;;
6529;SDS011;3298;42.688;23.366;2022-09-01T02:24:48;12.60;;;11.40;;
6529;SDS011;3298;42.688;23.366;2022-09-01T02:27:16;20.73;;;12.70;;
6529;SDS011;3298;42.688;23.366;2022-09-01T02:29:50;14.03;;;12.57;;
6529;SDS011;3298;42.688;23.366;2022-09-01T02:32:19;12.87;;;11.50;;
6529;SDS011;3298;42.688;23.366;2022-09-01T02:34:47;14.67;;;11.37;;
6529;SDS011;3298;42.688;23.366;2022-09-01T02:37:17;16.83;;;12.70;;
6529;SDS011;3298;42.688;23.366;2022-09-01T02:39:49;12.60;;;11.50;;
6529;SDS011;3298;42.688;23.366;2022-09-01T02:42:17;12.97;;;11.70;;
6529;SDS011;3298;42.688;23.366;2022-09-01T02:44:51;11.13;;;9.77;;
6529;SDS011;3298;42.688;23.366;2022-09-01T02:47:18;12.10;;;10.80;;
6529;SDS011;3298;42.688;23.366;2022-09-01T02:49:44;12.77;;;11.13;;
6529;SDS011;3298;42.688;23.366;2022-09-01T02:52:13;18.23;;;11.90;;
6529;SDS011;3298;42.688;23.366;2022-09-01T02:54:42;16.37;;;12.50;;
6529;SDS011;3298;42.688;23.366;2022-09-01T02:57:11;13.50;;;12.17;;
6529;SDS011;3298;42.688;23.366;2022-09-01T02:59:38;14.03;;;12.33;;
6529;SDS011;3298;42.688;23.366;2022-09-01T03:02:06;13.97;;;11.77;;
6529;SDS011;3298;42.688;23.366;2022-09-01T03:04:33;11.87;;;10.87;;
6529;SDS011;3298;42.688;23.366;2022-09-01T03:07:01;12.50;;;11.30;;
6529;SDS011;3298;42.688;23.366;2022-09-01T03:09:31;13.63;;;10.97;;
6529;SDS011;3298;42.688;23.366;2022-09-01T03:11:59;18.10;;;13.73;;
6529;SDS011;3298;42.688;23.366;2022-09-01T03:14:25;12.20;;;11.10;;
6529;SDS011;3298;42.688;23.366;2022-09-01T03:16:54;13.17;;;11.70;;
6529;SDS011;3298;42.688;23.366;2022-09-01T03:19:21;13.13;;;11.83;;
6529;SDS011;3298;42.688;23.366;2022-09-01T03:21:48;17.30;;;12.53;;
6529;SDS011;3298;42.688;23.366;2022-09-01T03:24:18;17.40;;;12.23;;
6529;SDS011;3298;42.688;23.366;2022-09-01T03:26:49;14.47;;;13.03;;
6529;SDS011;3298;42.688;23.366;2022-09-01T03:29:16;13.30;;;12.00;;
6529;SDS011;3298;42.688;23.366;2022-09-01T03:31:43;16.33;;;12.07;;
6529;SDS011;3298;42.688;23.366;2022-09-01T03:34:10;14.30;;;11.70;;
6529;SDS011;3298;42.688;23.366;2022-09-01T03:36:38;14.70;;;11.17;;
6529;SDS011;3298;42.688;23.366;2022-09-01T03:39:14;14.87;;;12.47;;
6529;SDS011;3298;42.688;23.366;2022-09-01T03:41:41;12.77;;;11.57;;
6529;SDS011;3298;42.688;23.366;2022-09-01T03:44:10;17.60;;;13.37;;
6529;SDS011;3298;42.688;23.366;2022-09-01T03:46:40;17.13;;;13.67;;
6529;SDS011;3298;42.688;23.366;2022-09-01T03:49:07;18.80;;;14.23;;
6529;SDS011;3298;42.688;23.366;2022-09-01T03:51:37;16.43;;;13.93;;
6529;SDS011;3298;42.688;23.366;2022-09-01T03:54:05;22.63;;;14.40;;
6529;SDS011;3298;42.688;23.366;2022-09-01T03:56:32;17.23;;;13.40;;
6529;SDS011;3298;42.688;23.366;2022-09-01T03:58:59;17.73;;;14.80;;
6529;SDS011;3298;42.688;23.366;2022-09-01T04:01:28;23.53;;;15.97;;
6529;SDS011;3298;42.688;23.366;2022-09-01T04:03:57;18.17;;;14.87;;
6529;SDS011;3298;42.688;23.366;2022-09-01T04:06:25;23.83;;;16.10;;
6529;SDS011;3298;42.688;23.366;2022-09-01T04:08:54;21.30;;;15.17;;
6529;SDS011;3298;42.688;23.366;2022-09-01T04:11:26;21.50;;;15.87;;
6529;SDS011;3298;42.688;23.366;2022-09-01T04:13:54;31.40;;;16.00;;
6529;SDS011;3298;42.688;23.366;2022-09-01T04:16:22;23.43;;;16.93;;
6529;SDS011;3298;42.688;23.366;2022-09-01T04:19:09;26.30;;;17.57;;
6529;SDS011;3298;42.688;23.366;2022-09-01T04:21:44;32.40;;;16.60;;
6529;SDS011;3298;42.688;23.366;2022-09-01T04:24:11;26.93;;;18.67;;
6529;SDS011;3298;42.688;23.366;2022-09-01T04:26:39;70.10;;;18.30;;
6529;SDS011;3298;42.688;23.366;2022-09-01T04:29:06;28.60;;;18.13;;
6529;SDS011;3298;42.688;23.366;2022-09-01T04:31:36;35.07;;;18.50;;
6529;SDS011;3298;42.688;23.366;2022-09-01T04:34:06;29.63;;;18.97;;
6529;SDS011;3298;42.688;23.366;2022-09-01T04:36:38;33.97;;;18.60;;
6529;SDS011;3298;42.688;23.366;2022-09-01T04:39:07;29.63;;;19.03;;
6529;SDS011;3298;42.688;23.366;2022-09-01T04:41:37;30.67;;;20.10;;
6529;SDS011;3298;42.688;23.366;2022-09-01T04:44:07;34.77;;;20.50;;
6529;SDS011;3298;42.688;23.366;2022-09-01T04:46:35;35.60;;;20.10;;
6529;SDS011;3298;42.688;23.366;2022-09-01T04:49:05;39.47;;;22.00;;
6529;SDS011;3298;42.688;23.366;2022-09-01T04:51:35;37.50;;;21.63;;
6529;SDS011;3298;42.688;23.366;2022-09-01T04:54:03;35.47;;;19.23;;
6529;SDS011;3298;42.688;23.366;2022-09-01T04:56:36;37.57;;;20.70;;
6529;SDS011;3298;42.688;23.366;2022-09-01T04:59:04;28.27;;;18.80;;
6529;SDS011;3298;42.688;23.366;2022-09-01T05:01:32;34.50;;;18.97;;
6529;SDS011;3298;42.688;23.366;2022-09-01T05:04:07;33.20;;;20.23;;
6529;SDS011;3298;42.688;23.366;2022-09-01T05:06:38;27.37;;;18.57;;
6529;SDS011;3298;42.688;23.366;2022-09-01T05:09:06;34.27;;;19.07;;
6529;SDS011;3298;42.688;23.366;2022-09-01T05:11:35;34.37;;;20.23;;
6529;SDS011;3298;42.688;23.366;2022-09-01T05:14:04;33.87;;;20.47;;
6529;SDS011;3298;42.688;23.366;2022-09-01T05:16:31;41.73;;;19.70;;
6529;SDS011;3298;42.688;23.366;2022-09-01T05:18:59;29.93;;;18.40;;
6529;SDS011;3298;42.688;23.366;2022-09-01T05:21:26;34.67;;;20.13;;
6529;SDS011;3298;42.688;23.366;2022-09-01T05:23:56;31.90;;;20.67;;
6529;SDS011;3298;42.688;23.366;2022-09-01T05:26:26;32.20;;;18.83;;
6529;SDS011;3298;42.688;23.366;2022-09-01T05:28:59;32.73;;;19.57;;
6529;SDS011;3298;42.688;23.366;2022-09-01T05:31:29;31.13;;;19.37;;
6529;SDS011;3298;42.688;23.366;2022-09-01T05:34:02;35.23;;;21.03;;
6529;SDS011;3298;42.688;23.366;2022-09-01T05:36:32;30.00;;;20.60;;
6529;SDS011;3298;42.688;23.366;2022-09-01T05:39:01;27.00;;;17.77;;
6529;SDS011;3298;42.688;23.366;2022-09-01T05:41:29;31.70;;;20.63;;
6529;SDS011;3298;42.688;23.366;2022-09-01T05:44:00;45.83;;;22.77;;
6529;SDS011;3298;42.688;23.366;2022-09-01T05:46:28;41.30;;;22.50;;
6529;SDS011;3298;42.688;23.366;2022-09-01T05:48:55;42.83;;;25.57;;
6529;SDS011;3298;42.688;23.366;2022-09-01T05:51:23;51.77;;;24.60;;
6529;SDS011;3298;42.688;23.366;2022-09-01T05:53:53;44.40;;;24.77;;
6529;SDS011;3298;42.688;23.366;2022-09-01T05:56:24;50.63;;;24.93;;
6529;SDS011;3298;42.688;23.366;2022-09-01T05:58:52;39.80;;;22.77;;
6529;SDS011;3298;42.688;23.366;2022-09-01T06:01:20;45.57;;;24.53;;
6529;SDS011;3298;42.688;23.366;2022-09-01T06:03:50;41.80;;;23.67;;
6529;SDS011;3298;42.688;23.366;2022-09-01T06:06:19;43.10;;;23.07;;
6529;SDS011;3298;42.688;23.366;2022-09-01T06:08:47;45.07;;;25.23;;
6529;SDS011;3298;42.688;23.366;2022-09-01T06:11:14;52.07;;;25.40;;
6529;SDS011;3298;42.688;23.366;2022-09-01T06:13:43;42.20;;;22.47;;
6529;SDS011;3298;42.688;23.366;2022-09-01T06:16:11;45.30;;;21.17;;
6529;SDS011;3298;42.688;23.366;2022-09-01T06:18:39;45.83;;;22.23;;
6529;SDS011;3298;42.688;23.366;2022-09-01T06:21:07;40.17;;;20.23;;
6529;SDS011;3298;42.688;23.366;2022-09-01T06:23:36;36.97;;;19.37;;
6529;SDS011;3298;42.688;23.366;2022-09-01T06:26:03;36.83;;;18.23;;
6529;SDS011;3298;42.688;23.366;2022-09-01T06:28:31;39.20;;;21.17;;
6529;SDS011;3298;42.688;23.366;2022-09-01T06:30:59;46.77;;;20.87;;
6529;SDS011;3298;42.688;23.366;2022-09-01T06:33:31;35.90;;;19.07;;
6529;SDS011;3298;42.688;23.366;2022-09-01T06:35:59;30.97;;;17.80;;
6529;SDS011;3298;42.688;23.366;2022-09-01T06:38:28;32.13;;;20.07;;
6529;SDS011;3298;42.688;23.366;2022-09-01T06:40:59;42.47;;;21.67;;
6529;SDS011;3298;42.688;23.366;2022-09-01T06:43:28;31.70;;;21.10;;
6529;SDS011;3298;42.688;23.366;2022-09-01T06:45:59;30.40;;;20.63;;
6529;SDS011;3298;42.688;23.366;2022-09-01T06:48:27;37.57;;;21.07;;
6529;SDS011;3298;42.688;23.366;2022-09-01T06:50:57;32.57;;;20.20;;
6529;SDS011;3298;42.688;23.366;2022-09-01T06:53:25;30.90;;;18.73;;
6529;SDS011;3298;42.688;23.366;2022-09-01T06:55:55;32.70;;;20.73;;
6529;SDS011;3298;42.688;23.366;2022-09-01T06:58:22;38.70;;;22.03;;
6529;SDS011;3298;42.688;23.366;2022-09-01T07:00:49;37.07;;;21.87;;
6529;SDS011;3298;42.688;23.366;2022-09-01T07:03:18;37.40;;;21.30;;
6529;SDS011;3298;42.688;23.366;2022-09-01T07:05:47;28.93;;;18.80;;
6529;SDS011;3298;42.688;23.366;2022-09-01T07:08:16;28.30;;;18.73;;
6529;SDS011;3298;42.688;23.366;2022-09-01T07:10:46;30.47;;;19.03;;
6529;SDS011;3298;42.688;23.366;2022-09-01T07:13:16;24.83;;;18.50;;
6529;SDS011;3298;42.688;23.366;2022-09-01T07:15:48;37.40;;;19.57;;
6529;SDS011;3298;42.688;23.366;2022-09-01T07:18:18;24.47;;;19.13;;
6529;SDS011;3298;42.688;23.366;2022-09-01T07:20:47;28.83;;;18.67;;
6529;SDS011;3298;42.688;23.366;2022-09-01T07:23:15;28.50;;;19.47;;
6529;SDS011;3298;42.688;23.366;2022-09-01T07:25:43;27.00;;;18.17;;
6529;SDS011;3298;42.688;23.366;2022-09-01T07:28:12;22.07;;;17.73;;
6529;SDS011;3298;42.688;23.366;2022-09-01T07:30:41;30.50;;;19.73;;
6529;SDS011;3298;42.688;23.366;2022-09-01T07:33:11;22.07;;;16.83;;
6529;SDS011;3298;42.688;23.366;2022-09-01T07:35:40;24.17;;;18.00;;
6529;SDS011;3298;42.688;23.366;2022-09-01T07:38:08;24.00;;;18.57;;
6529;SDS011;3298;42.688;23.366;2022-09-01T07:40:35;29.77;;;20.50;;
6529;SDS011;3298;42.688;23.366;2022-09-01T07:43:04;25.57;;;18.87;;
6529;SDS011;3298;42.688;23.366;2022-09-01T07:45:34;28.70;;;19.70;;
6529;SDS011;3298;42.688;23.366;2022-09-01T07:48:03;22.13;;;16.83;;
6529;SDS011;3298;42.688;23.366;2022-09-01T07:50:31;22.67;;;17.57;;
6529;SDS011;3298;42.688;23.366;2022-09-01T07:53:00;26.70;;;17.53;;
6529;SDS011;3298;42.688;23.366;2022-09-01T07:55:27;22.93;;;15.73;;
6529;SDS011;3298;42.688;23.366;2022-09-01T07:57:55;22.03;;;17.90;;
6529;SDS011;3298;42.688;23.366;2022-09-01T08:00:23;22.43;;;17.00;;
6529;SDS011;3298;42.688;23.366;2022-09-01T08:02:52;24.10;;;17.40;;
6529;SDS011;3298;42.688;23.366;2022-09-01T08:05:19;27.53;;;19.57;;
6529;SDS011;3298;42.688;23.366;2022-09-01T08:07:51;24.73;;;19.20;;
6529;SDS011;3298;42.688;23.366;2022-09-01T08:10:20;33.90;;;18.80;;
6529;SDS011;3298;42.688;23.366;2022-09-01T08:12:47;29.77;;;19.90;;
6529;SDS011;3298;42.688;23.366;2022-09-01T08:15:14;33.03;;;19.43;;
6529;SDS011;3298;42.688;23.366;2022-09-01T08:17:42;33.77;;;19.30;;
6529;SDS011;3298;42.688;23.366;2022-09-01T08:20:09;26.70;;;19.47;;
6529;SDS011;3298;42.688;23.366;2022-09-01T08:22:37;29.90;;;18.83;;
6529;SDS011;3298;42.688;23.366;2022-09-01T08:25:04;25.83;;;19.27;;
6529;SDS011;3298;42.688;23.366;2022-09-01T08:27:33;27.33;;;18.97;;
6529;SDS011;3298;42.688;23.366;2022-09-01T08:30:03;27.90;;;19.77;;
6529;SDS011;3298;42.688;23.366;2022-09-01T08:32:31;27.93;;;20.30;;
6529;SDS011;3298;42.688;23.366;2022-09-01T08:34:59;27.17;;;18.23;;
6529;SDS011;3298;42.688;23.366;2022-09-01T08:37:26;23.10;;;17.90;;
6529;SDS011;3298;42.688;23.366;2022-09-01T08:39:53;26.33;;;17.57;;
6529;SDS011;3298;42.688;23.366;2022-09-01T08:42:31;19.63;;;16.87;;
6529;SDS011;3298;42.688;23.366;2022-09-01T08:45:10;30.20;;;16.13;;
6529;SDS011;3298;42.688;23.366;2022-09-01T08:47:42;20.93;;;16.47;;
6529;SDS011;3298;42.688;23.366;2022-09-01T08:50:10;23.97;;;15.53;;
6529;SDS011;3298;42.688;23.366;2022-09-01T08:52:38;22.30;;;16.77;;
6529;SDS011;3298;42.688;23.366;2022-09-01T08:55:12;23.43;;;16.57;;
6529;SDS011;3298;42.688;23.366;2022-09-01T08:57:43;18.30;;;14.73;;
6529;SDS011;3298;42.688;23.366;2022-09-01T09:00:16;21.27;;;13.67;;
6529;SDS011;3298;42.688;23.366;2022-09-01T09:02:52;17.83;;;13.90;;
6529;SDS011;3298;42.688;23.366;2022-09-01T09:05:31;21.73;;;13.30;;
6529;SDS011;3298;42.688;23.366;2022-09-01T09:11:05;17.93;;;12.60;;
6529;SDS011;3298;42.688;23.366;2022-09-01T09:13:43;13.43;;;12.03;;
6529;SDS011;3298;42.688;23.366;2022-09-01T09:16:23;13.13;;;11.83;;
6529;SDS011;3298;42.688;23.366;2022-09-01T09:18:56;13.00;;;11.67;;
6529;SDS011;3298;42.688;23.366;2022-09-01T09:21:32;19.07;;;14.53;;
6529;SDS011;3298;42.688;23.366;2022-09-01T09:24:02;17.37;;;12.70;;
6529;SDS011;3298;42.688;23.366;2022-09-01T09:26:35;16.90;;;12.30;;
6529;SDS011;3298;42.688;23.366;2022-09-01T09:29:03;16.23;;;12.60;;
6529;SDS011;3298;42.688;23.366;2022-09-01T09:31:31;12.53;;;11.33;;
6529;SDS011;3298;42.688;23.366;2022-09-01T09:34:01;13.87;;;11.50;;
6529;SDS011;3298;42.688;23.366;2022-09-01T09:36:29;14.10;;;10.73;;
6529;SDS011;3298;42.688;23.366;2022-09-01T09:39:05;10.03;;;9.10;;
6529;SDS011;3298;42.688;23.366;2022-09-01T09:41:35;12.60;;;9.93;;
6529;SDS011;3298;42.688;23.366;2022-09-01T09:44:05;12.67;;;7.73;;
6529;SDS011;3298;42.688;23.366;2022-09-01T09:46:43;9.07;;;8.27;;
6529;SDS011;3298;42.688;23.366;2022-09-01T09:49:12;9.40;;;8.63;;
6529;SDS011;3298;42.688;23.366;2022-09-01T09:51:45;13.53;;;10.07;;
6529;SDS011;3298;42.688;23.366;2022-09-01T09:54:15;12.80;;;10.27;;
6529;SDS011;3298;42.688;23.366;2022-09-01T09:56:45;10.03;;;9.13;;
6529;SDS011;3298;42.688;23.366;2022-09-01T09:59:18;8.97;;;8.10;;
6529;SDS011;3298;42.688;23.366;2022-09-01T10:01:49;10.83;;;9.07;;
6529;SDS011;3298;42.688;23.366;2022-09-01T10:07:21;9.40;;;8.47;;
6529;SDS011;3298;42.688;23.366;2022-09-01T10:09:50;9.00;;;8.30;;
6529;SDS011;3298;42.688;23.366;2022-09-01T10:12:17;12.00;;;8.03;;
6529;SDS011;3298;42.688;23.366;2022-09-01T10:14:47;10.23;;;8.10;;
6529;SDS011;3298;42.688;23.366;2022-09-01T10:17:19;10.77;;;8.17;;
6529;SDS011;3298;42.688;23.366;2022-09-01T10:19:51;8.97;;;8.07;;
6529;SDS011;3298;42.688;23.366;2022-09-01T10:22:21;7.90;;;7.30;;
6529;SDS011;3298;42.688;23.366;2022-09-01T10:24:49;8.50;;;7.60;;
6529;SDS011;3298;42.688;23.366;2022-09-01T10:27:18;11.30;;;7.60;;
6529;SDS011;3298;42.688;23.366;2022-09-01T10:29:49;7.13;;;6.53;;
6529;SDS011;3298;42.688;23.366;2022-09-01T10:32:24;7.03;;;6.33;;
6529;SDS011;3298;42.688;23.366;2022-09-01T10:34:54;8.10;;;7.50;;
6529;SDS011;3298;42.688;23.366;2022-09-01T10:37:22;8.03;;;7.10;;
6529;SDS011;3298;42.688;23.366;2022-09-01T10:40:08;8.87;;;7.93;;
6529;SDS011;3298;42.688;23.366;2022-09-01T10:42:43;7.70;;;7.00;;
6529;SDS011;3298;42.688;23.366;2022-09-01T10:45:17;9.77;;;6.93;;
6529;SDS011;3298;42.688;23.366;2022-09-01T10:47:54;9.23;;;7.43;;
6529;SDS011;3298;42.688;23.366;2022-09-01T10:50:26;8.00;;;7.23;;
6529;SDS011;3298;42.688;23.366;2022-09-01T10:53:03;7.00;;;6.33;;
6529;SDS011;3298;42.688;23.366;2022-09-01T10:55:33;7.17;;;6.70;;
6529;SDS011;3298;42.688;23.366;2022-09-01T11:01:09;16.90;;;7.07;;
6529;SDS011;3298;42.688;23.366;2022-09-01T11:06:41;7.70;;;7.00;;
6529;SDS011;3298;42.688;23.366;2022-09-01T11:09:20;8.37;;;7.67;;
6529;SDS011;3298;42.688;23.366;2022-09-01T11:11:55;10.03;;;9.00;;
6529;SDS011;3298;42.688;23.366;2022-09-01T11:14:45;11.50;;;7.47;;
6529;SDS011;3298;42.688;23.366;2022-09-01T11:17:16;10.23;;;7.60;;
6529;SDS011;3298;42.688;23.366;2022-09-01T11:19:46;9.37;;;8.50;;
6529;SDS011;3298;42.688;23.366;2022-09-01T11:22:23;8.73;;;7.80;;
6529;SDS011;3298;42.688;23.366;2022-09-01T11:28:09;8.87;;;7.47;;
6529;SDS011;3298;42.688;23.366;2022-09-01T11:30:52;6.67;;;5.67;;
6529;SDS011;3298;42.688;23.366;2022-09-01T11:33:44;10.63;;;7.20;;
6529;SDS011;3298;42.688;23.366;2022-09-01T11:36:21;7.10;;;6.53;;
6529;SDS011;3298;42.688;23.366;2022-09-01T11:38:55;8.80;;;7.87;;
6529;SDS011;3298;42.688;23.366;2022-09-01T11:41:35;6.83;;;6.37;;
6529;SDS011;3298;42.688;23.366;2022-09-01T11:44:17;9.50;;;6.20;;
6529;SDS011;3298;42.688;23.366;2022-09-01T11:46:49;7.67;;;5.17;;
6529;SDS011;3298;42.688;23.366;2022-09-01T11:49:25;6.37;;;5.87;;
6529;SDS011;3298;42.688;23.366;2022-09-01T11:51:54;6.03;;;5.67;;
6529;SDS011;3298;42.688;23.366;2022-09-01T11:54:22;6.30;;;5.67;;
6529;SDS011;3298;42.688;23.366;2022-09-01T11:56:49;8.13;;;7.10;;
6529;SDS011;3298;42.688;23.366;2022-09-01T11:59:28;7.00;;;6.40;;
6529;SDS011;3298;42.688;23.366;2022-09-01T12:01:56;7.57;;;6.60;;
6529;SDS011;3298;42.688;23.366;2022-09-01T12:04:25;9.25;;;6.05;;
6529;SDS011;3298;42.688;23.366;2022-09-01T12:06:58;7.43;;;6.80;;
6529;SDS011;3298;42.688;23.366;2022-09-01T12:09:31;8.17;;;6.87;;
6529;SDS011;3298;42.688;23.366;2022-09-01T12:11:59;11.77;;;7.53;;
6529;SDS011;3298;42.688;23.366;2022-09-01T12:14:27;8.07;;;7.27;;
6529;SDS011;3298;42.688;23.366;2022-09-01T12:17:00;8.13;;;7.27;;
6529;SDS011;3298;42.688;23.366;2022-09-01T12:19:31;8.10;;;7.07;;
6529;SDS011;3298;42.688;23.366;2022-09-01T12:22:00;9.40;;;6.30;;
6529;SDS011;3298;42.688;23.366;2022-09-01T12:24:30;7.77;;;6.87;;
6529;SDS011;3298;42.688;23.366;2022-09-01T12:27:01;7.30;;;6.73;;
6529;SDS011;3298;42.688;23.366;2022-09-01T12:29:29;7.90;;;7.27;;
6529;SDS011;3298;42.688;23.366;2022-09-01T12:31:57;9.47;;;7.23;;
6529;SDS011;3298;42.688;23.366;2022-09-01T12:34:26;10.10;;;7.03;;
6529;SDS011;3298;42.688;23.366;2022-09-01T12:37:04;7.93;;;7.27;;
6529;SDS011;3298;42.688;23.366;2022-09-01T12:39:33;7.77;;;7.13;;
6529;SDS011;3298;42.688;23.366;2022-09-01T12:42:09;8.13;;;7.00;;
6529;SDS011;3298;42.688;23.366;2022-09-01T12:44:45;11.77;;;8.27;;
6529;SDS011;3298;42.688;23.366;2022-09-01T12:50:33;7.50;;;6.97;;
6529;SDS011;3298;42.688;23.366;2022-09-01T12:53:29;7.97;;;7.03;;
6529;SDS011;3298;42.688;23.366;2022-09-01T12:56:02;7.63;;;6.80;;
6529;SDS011;3298;42.688;23.366;2022-09-01T12:58:32;6.87;;;6.27;;
6529;SDS011;3298;42.688;23.366;2022-09-01T13:01:00;6.97;;;6.43;;
6529;SDS011;3298;42.688;23.366;2022-09-01T13:03:31;11.33;;;8.03;;
6529;SDS011;3298;42.688;23.366;2022-09-01T13:05:59;8.30;;;7.60;;
6529;SDS011;3298;42.688;23.366;2022-09-01T13:08:29;10.30;;;7.67;;
6529;SDS011;3298;42.688;23.366;2022-09-01T13:11:00;8.83;;;6.30;;
6529;SDS011;3298;42.688;23.366;2022-09-01T13:13:28;7.90;;;7.20;;
6529;SDS011;3298;42.688;23.366;2022-09-01T13:15:56;7.47;;;6.97;;
6529;SDS011;3298;42.688;23.366;2022-09-01T13:18:25;6.87;;;6.37;;
6529;SDS011;3298;42.688;23.366;2022-09-01T13:20:53;7.50;;;6.87;;
6529;SDS011;3298;42.688;23.366;2022-09-01T13:23:21;7.93;;;6.90;;
6529;SDS011;3298;42.688;23.366;2022-09-01T13:25:50;12.10;;;6.77;;
6529;SDS011;3298;42.688;23.366;2022-09-01T13:28:17;7.93;;;6.77;;
6529;SDS011;3298;42.688;23.366;2022-09-01T13:30:49;7.97;;;7.17;;
6529;SDS011;3298;42.688;23.366;2022-09-01T13:33:21;8.63;;;6.73;;
6529;SDS011;3298;42.688;23.366;2022-09-01T13:35:48;7.53;;;6.93;;
6529;SDS011;3298;42.688;23.366;2022-09-01T13:38:16;6.53;;;6.13;;
6529;SDS011;3298;42.688;23.366;2022-09-01T13:40:43;9.20;;;6.10;;
6529;SDS011;3298;42.688;23.366;2022-09-01T13:43:12;6.60;;;6.20;;
6529;SDS011;3298;42.688;23.366;2022-09-01T13:45:40;6.80;;;6.20;;
6529;SDS011;3298;42.688;23.366;2022-09-01T13:48:07;9.90;;;7.93;;
6529;SDS011;3298;42.688;23.366;2022-09-01T13:50:34;6.67;;;6.17;;
6529;SDS011;3298;42.688;23.366;2022-09-01T13:53:03;6.07;;;5.50;;
6529;SDS011;3298;42.688;23.366;2022-09-01T13:55:32;7.27;;;6.00;;
6529;SDS011;3298;42.688;23.366;2022-09-01T13:58:00;8.70;;;6.93;;
6529;SDS011;3298;42.688;23.366;2022-09-01T14:00:29;14.43;;;8.30;;
6529;SDS011;3298;42.688;23.366;2022-09-01T14:02:58;8.20;;;7.53;;
6529;SDS011;3298;42.688;23.366;2022-09-01T14:05:29;8.77;;;7.73;;
6529;SDS011;3298;42.688;23.366;2022-09-01T14:07:59;8.67;;;8.00;;
6529;SDS011;3298;42.688;23.366;2022-09-01T14:10:27;8.23;;;7.53;;
6529;SDS011;3298;42.688;23.366;2022-09-01T14:12:55;8.60;;;7.83;;
6529;SDS011;3298;42.688;23.366;2022-09-01T14:15:22;7.30;;;6.90;;
6529;SDS011;3298;42.688;23.366;2022-09-01T14:17:52;8.30;;;7.60;;
6529;SDS011;3298;42.688;23.366;2022-09-01T14:20:22;9.00;;;7.80;;
6529;SDS011;3298;42.688;23.366;2022-09-01T14:22:51;12.03;;;7.93;;
6529;SDS011;3298;42.688;23.366;2022-09-01T14:25:19;7.13;;;6.53;;
6529;SDS011;3298;42.688;23.366;2022-09-01T14:27:46;7.87;;;7.17;;
6529;SDS011;3298;42.688;23.366;2022-09-01T14:30:14;7.93;;;7.17;;
6529;SDS011;3298;42.688;23.366;2022-09-01T14:32:44;8.80;;;8.10;;
6529;SDS011;3298;42.688;23.366;2022-09-01T14:35:13;7.97;;;7.27;;
6529;SDS011;3298;42.688;23.366;2022-09-01T14:37:41;7.17;;;6.67;;
6529;SDS011;3298;42.688;23.366;2022-09-01T14:40:09;9.17;;;8.43;;
6529;SDS011;3298;42.688;23.366;2022-09-01T14:42:39;8.43;;;7.40;;
6529;SDS011;3298;42.688;23.366;2022-09-01T14:45:08;10.13;;;7.23;;
6529;SDS011;3298;42.688;23.366;2022-09-01T14:47:36;8.40;;;7.77;;
6529;SDS011;3298;42.688;23.366;2022-09-01T14:50:03;13.40;;;7.67;;
6529;SDS011;3298;42.688;23.366;2022-09-01T14:52:33;10.47;;;8.17;;
6529;SDS011;3298;42.688;23.366;2022-09-01T14:55:01;9.53;;;8.03;;
6529;SDS011;3298;42.688;23.366;2022-09-01T14:57:29;9.53;;;8.53;;
6529;SDS011;3298;42.688;23.366;2022-09-01T14:59:56;13.80;;;8.57;;
6529;SDS011;3298;42.688;23.366;2022-09-01T15:02:23;8.50;;;7.50;;
6529;SDS011;3298;42.688;23.366;2022-09-01T15:04:53;10.73;;;8.20;;
6529;SDS011;3298;42.688;23.366;2022-09-01T15:07:20;9.60;;;8.63;;
6529;SDS011;3298;42.688;23.366;2022-09-01T15:09:48;9.37;;;8.17;;
6529;SDS011;3298;42.688;23.366;2022-09-01T15:12:15;8.53;;;7.60;;
6529;SDS011;3298;42.688;23.366;2022-09-01T15:14:42;8.53;;;7.73;;
6529;SDS011;3298;42.688;23.366;2022-09-01T15:17:09;8.27;;;7.57;;